<?xml version="1.0" encoding="UTF-8" standalone="no" ?>
<gpx xmlns="http://www.topografix.com/GPX/1/1" xmlns:xsi="http://www.w3.org/2001/XMLSchema-instance" xsi:schemaLocation="http://www.topografix.com/GPX/1/1 http://www.topografix.com/GPX/1/1/gpx.xsd" version="1.1" creator="VisuGPX - https://www.visugpx.com">
  <metadata>
    <name>boucle chamelet</name>
    <desc><![CDATA[Boucle a partir de chamelet.
Joli parcours, mais physique et technique par endroits.]]></desc>
  </metadata>
  <trk>
    <name><![CDATA[CHAMELET 2]]></name>
    <trkseg>
      <trkpt lat="45.97986" lon="4.50952">
        <ele>327.95</ele>
        <time>2014-05-25T08:00:35Z</time>
      </trkpt>
      <trkpt lat="45.98" lon="4.50944">
        <ele>341.41</ele>
        <time>2014-05-25T08:17:22Z</time>
      </trkpt>
      <trkpt lat="45.9807" lon="4.51028">
        <ele>339.48</ele>
        <time>2014-05-25T08:18:05Z</time>
      </trkpt>
      <trkpt lat="45.98135" lon="4.51091">
        <ele>338.52</ele>
        <time>2014-05-25T08:18:24Z</time>
      </trkpt>
      <trkpt lat="45.98216" lon="4.51127">
        <ele>340.44</ele>
        <time>2014-05-25T08:18:55Z</time>
      </trkpt>
      <trkpt lat="45.98302" lon="4.51154">
        <ele>344.29</ele>
        <time>2014-05-25T08:19:24Z</time>
      </trkpt>
      <trkpt lat="45.98386" lon="4.51221">
        <ele>346.69</ele>
        <time>2014-05-25T08:19:56Z</time>
      </trkpt>
      <trkpt lat="45.98301" lon="4.51197">
        <ele>356.79</ele>
        <time>2014-05-25T08:20:47Z</time>
      </trkpt>
      <trkpt lat="45.98309" lon="4.51268">
        <ele>371.21</ele>
        <time>2014-05-25T08:21:53Z</time>
      </trkpt>
      <trkpt lat="45.98326" lon="4.51385">
        <ele>381.78</ele>
        <time>2014-05-25T08:23:03Z</time>
      </trkpt>
      <trkpt lat="45.98371" lon="4.51492">
        <ele>395.72</ele>
        <time>2014-05-25T08:24:35Z</time>
      </trkpt>
      <trkpt lat="45.98409" lon="4.51622">
        <ele>420.71</ele>
        <time>2014-05-25T08:27:13Z</time>
      </trkpt>
      <trkpt lat="45.98443" lon="4.51746">
        <ele>441.86</ele>
        <time>2014-05-25T08:29:29Z</time>
      </trkpt>
      <trkpt lat="45.98389" lon="4.51744">
        <ele>450.52</ele>
        <time>2014-05-25T08:30:45Z</time>
      </trkpt>
      <trkpt lat="45.98299" lon="4.51702">
        <ele>452.92</ele>
        <time>2014-05-25T08:31:21Z</time>
      </trkpt>
      <trkpt lat="45.98253" lon="4.51723">
        <ele>464.45</ele>
        <time>2014-05-25T08:32:20Z</time>
      </trkpt>
      <trkpt lat="45.98314" lon="4.51817">
        <ele>467.82</ele>
        <time>2014-05-25T08:32:58Z</time>
      </trkpt>
      <trkpt lat="45.9839" lon="4.51892">
        <ele>474.07</ele>
        <time>2014-05-25T08:33:39Z</time>
      </trkpt>
      <trkpt lat="45.98473" lon="4.51955">
        <ele>478.87</ele>
        <time>2014-05-25T08:34:25Z</time>
      </trkpt>
      <trkpt lat="45.9853" lon="4.52051">
        <ele>481.28</ele>
        <time>2014-05-25T08:36:54Z</time>
      </trkpt>
      <trkpt lat="45.98607" lon="4.52127">
        <ele>479.35</ele>
        <time>2014-05-25T08:37:12Z</time>
      </trkpt>
      <trkpt lat="45.98557" lon="4.52203">
        <ele>488.01</ele>
        <time>2014-05-25T08:37:53Z</time>
      </trkpt>
      <trkpt lat="45.98482" lon="4.52269">
        <ele>495.7</ele>
        <time>2014-05-25T08:38:45Z</time>
      </trkpt>
      <trkpt lat="45.9848" lon="4.52386">
        <ele>499.54</ele>
        <time>2014-05-25T08:39:34Z</time>
      </trkpt>
      <trkpt lat="45.98539" lon="4.52492">
        <ele>502.91</ele>
        <time>2014-05-25T08:40:10Z</time>
      </trkpt>
      <trkpt lat="45.98508" lon="4.52587">
        <ele>519.25</ele>
        <time>2014-05-25T08:41:52Z</time>
      </trkpt>
      <trkpt lat="45.98424" lon="4.52611">
        <ele>522.61</ele>
        <time>2014-05-25T08:44:32Z</time>
      </trkpt>
      <trkpt lat="45.98334" lon="4.5257">
        <ele>522.61</ele>
        <time>2014-05-25T08:45:06Z</time>
      </trkpt>
      <trkpt lat="45.98242" lon="4.52546">
        <ele>531.27</ele>
        <time>2014-05-25T08:45:53Z</time>
      </trkpt>
      <trkpt lat="45.98148" lon="4.5254">
        <ele>530.3</ele>
        <time>2014-05-25T08:46:17Z</time>
      </trkpt>
      <trkpt lat="45.98055" lon="4.52519">
        <ele>528.86</ele>
        <time>2014-05-25T08:46:37Z</time>
      </trkpt>
      <trkpt lat="45.97967" lon="4.52476">
        <ele>527.9</ele>
        <time>2014-05-25T08:46:55Z</time>
      </trkpt>
      <trkpt lat="45.97891" lon="4.52408">
        <ele>528.86</ele>
        <time>2014-05-25T08:47:12Z</time>
      </trkpt>
      <trkpt lat="45.97797" lon="4.52401">
        <ele>516.85</ele>
        <time>2014-05-25T08:47:29Z</time>
      </trkpt>
      <trkpt lat="45.97722" lon="4.52316">
        <ele>508.19</ele>
        <time>2014-05-25T08:47:45Z</time>
      </trkpt>
      <trkpt lat="45.97669" lon="4.52209">
        <ele>503.87</ele>
        <time>2014-05-25T08:48:23Z</time>
      </trkpt>
      <trkpt lat="45.97585" lon="4.52167">
        <ele>488.49</ele>
        <time>2014-05-25T08:48:39Z</time>
      </trkpt>
      <trkpt lat="45.97496" lon="4.52165">
        <ele>473.11</ele>
        <time>2014-05-25T08:48:54Z</time>
      </trkpt>
      <trkpt lat="45.97459" lon="4.52066">
        <ele>466.86</ele>
        <time>2014-05-25T08:49:10Z</time>
      </trkpt>
      <trkpt lat="45.97406" lon="4.51955">
        <ele>454.84</ele>
        <time>2014-05-25T08:49:29Z</time>
      </trkpt>
      <trkpt lat="45.97319" lon="4.51909">
        <ele>444.75</ele>
        <time>2014-05-25T08:49:44Z</time>
      </trkpt>
      <trkpt lat="45.9723" lon="4.51913">
        <ele>437.54</ele>
        <time>2014-05-25T08:49:56Z</time>
      </trkpt>
      <trkpt lat="45.97194" lon="4.51839">
        <ele>434.65</ele>
        <time>2014-05-25T08:57:16Z</time>
      </trkpt>
      <trkpt lat="45.97154" lon="4.51725">
        <ele>424.56</ele>
        <time>2014-05-25T08:57:33Z</time>
      </trkpt>
      <trkpt lat="45.97084" lon="4.51646">
        <ele>408.7</ele>
        <time>2014-05-25T08:57:49Z</time>
      </trkpt>
      <trkpt lat="45.97038" lon="4.51551">
        <ele>400.05</ele>
        <time>2014-05-25T08:58:14Z</time>
      </trkpt>
      <trkpt lat="45.97035" lon="4.51467">
        <ele>398.12</ele>
        <time>2014-05-25T08:59:03Z</time>
      </trkpt>
      <trkpt lat="45.97042" lon="4.51336">
        <ele>389.95</ele>
        <time>2014-05-25T08:59:18Z</time>
      </trkpt>
      <trkpt lat="45.97034" lon="4.51213">
        <ele>372.17</ele>
        <time>2014-05-25T08:59:34Z</time>
      </trkpt>
      <trkpt lat="45.97122" lon="4.51197">
        <ele>363.04</ele>
        <time>2014-05-25T08:59:44Z</time>
      </trkpt>
      <trkpt lat="45.97212" lon="4.51193">
        <ele>351.98</ele>
        <time>2014-05-25T08:59:55Z</time>
      </trkpt>
      <trkpt lat="45.97205" lon="4.51065">
        <ele>339</ele>
        <time>2014-05-25T09:00:07Z</time>
      </trkpt>
      <trkpt lat="45.97245" lon="4.50953">
        <ele>325.06</ele>
        <time>2014-05-25T09:00:17Z</time>
      </trkpt>
      <trkpt lat="45.97331" lon="4.50937">
        <ele>318.33</ele>
        <time>2014-05-25T09:00:41Z</time>
      </trkpt>
      <trkpt lat="45.97419" lon="4.50897">
        <ele>319.78</ele>
        <time>2014-05-25T09:01:05Z</time>
      </trkpt>
      <trkpt lat="45.97506" lon="4.5086">
        <ele>318.81</ele>
        <time>2014-05-25T09:01:23Z</time>
      </trkpt>
      <trkpt lat="45.97591" lon="4.50813">
        <ele>319.78</ele>
        <time>2014-05-25T09:01:39Z</time>
      </trkpt>
      <trkpt lat="45.97682" lon="4.50799">
        <ele>316.41</ele>
        <time>2014-05-25T09:02:10Z</time>
      </trkpt>
      <trkpt lat="45.97757" lon="4.50801">
        <ele>316.41</ele>
        <time>2014-05-25T09:02:34Z</time>
      </trkpt>
      <trkpt lat="45.97665" lon="4.50787">
        <ele>317.37</ele>
        <time>2014-05-25T09:02:52Z</time>
      </trkpt>
      <trkpt lat="45.97575" lon="4.50812">
        <ele>319.3</ele>
        <time>2014-05-25T09:03:08Z</time>
      </trkpt>
      <trkpt lat="45.97487" lon="4.50859">
        <ele>318.81</ele>
        <time>2014-05-25T09:03:23Z</time>
      </trkpt>
      <trkpt lat="45.97398" lon="4.50899">
        <ele>318.81</ele>
        <time>2014-05-25T09:03:39Z</time>
      </trkpt>
      <trkpt lat="45.97311" lon="4.50933">
        <ele>317.85</ele>
        <time>2014-05-25T09:03:55Z</time>
      </trkpt>
      <trkpt lat="45.9723" lon="4.50883">
        <ele>316.89</ele>
        <time>2014-05-25T09:04:15Z</time>
      </trkpt>
      <trkpt lat="45.97138" lon="4.5087">
        <ele>316.89</ele>
        <time>2014-05-25T09:04:45Z</time>
      </trkpt>
      <trkpt lat="45.9705" lon="4.50901">
        <ele>315.93</ele>
        <time>2014-05-25T09:05:04Z</time>
      </trkpt>
      <trkpt lat="45.96957" lon="4.50936">
        <ele>312.57</ele>
        <time>2014-05-25T09:05:21Z</time>
      </trkpt>
      <trkpt lat="45.96864" lon="4.5093">
        <ele>311.12</ele>
        <time>2014-05-25T09:05:37Z</time>
      </trkpt>
      <trkpt lat="45.96771" lon="4.50956">
        <ele>309.68</ele>
        <time>2014-05-25T09:06:00Z</time>
      </trkpt>
      <trkpt lat="45.96674" lon="4.50966">
        <ele>307.76</ele>
        <time>2014-05-25T09:06:19Z</time>
      </trkpt>
      <trkpt lat="45.9659" lon="4.51022">
        <ele>305.36</ele>
        <time>2014-05-25T09:06:39Z</time>
      </trkpt>
      <trkpt lat="45.96516" lon="4.51107">
        <ele>304.39</ele>
        <time>2014-05-25T09:06:59Z</time>
      </trkpt>
      <trkpt lat="45.9645" lon="4.51172">
        <ele>303.43</ele>
        <time>2014-05-25T09:07:32Z</time>
      </trkpt>
      <trkpt lat="45.96527" lon="4.51106">
        <ele>303.91</ele>
        <time>2014-05-25T09:08:11Z</time>
      </trkpt>
      <trkpt lat="45.96602" lon="4.51025">
        <ele>305.36</ele>
        <time>2014-05-25T09:08:33Z</time>
      </trkpt>
      <trkpt lat="45.96692" lon="4.5099">
        <ele>311.6</ele>
        <time>2014-05-25T09:09:04Z</time>
      </trkpt>
      <trkpt lat="45.96782" lon="4.50979">
        <ele>314.97</ele>
        <time>2014-05-25T09:09:35Z</time>
      </trkpt>
      <trkpt lat="45.96865" lon="4.50965">
        <ele>322.66</ele>
        <time>2014-05-25T09:10:16Z</time>
      </trkpt>
      <trkpt lat="45.96845" lon="4.51051">
        <ele>328.43</ele>
        <time>2014-05-25T09:11:07Z</time>
      </trkpt>
      <trkpt lat="45.96758" lon="4.51082">
        <ele>333.23</ele>
        <time>2014-05-25T09:11:36Z</time>
      </trkpt>
      <trkpt lat="45.96729" lon="4.51125">
        <ele>332.75</ele>
        <time>2014-05-25T09:17:20Z</time>
      </trkpt>
      <trkpt lat="45.96684" lon="4.51255">
        <ele>342.37</ele>
        <time>2014-05-25T09:18:17Z</time>
      </trkpt>
      <trkpt lat="45.96658" lon="4.51401">
        <ele>354.38</ele>
        <time>2014-05-25T09:19:31Z</time>
      </trkpt>
      <trkpt lat="45.96686" lon="4.51516">
        <ele>373.61</ele>
        <time>2014-05-25T09:21:05Z</time>
      </trkpt>
      <trkpt lat="45.96763" lon="4.51474">
        <ele>388.51</ele>
        <time>2014-05-25T09:22:29Z</time>
      </trkpt>
      <trkpt lat="45.96813" lon="4.51504">
        <ele>400.05</ele>
        <time>2014-05-25T09:23:45Z</time>
      </trkpt>
      <trkpt lat="45.96875" lon="4.51567">
        <ele>403.41</ele>
        <time>2014-05-25T09:24:31Z</time>
      </trkpt>
      <trkpt lat="45.96969" lon="4.51567">
        <ele>402.93</ele>
        <time>2014-05-25T09:24:51Z</time>
      </trkpt>
      <trkpt lat="45.96938" lon="4.5167">
        <ele>397.64</ele>
        <time>2014-05-25T09:25:11Z</time>
      </trkpt>
      <trkpt lat="45.96896" lon="4.5179">
        <ele>388.99</ele>
        <time>2014-05-25T09:27:00Z</time>
      </trkpt>
      <trkpt lat="45.96902" lon="4.51898">
        <ele>378.42</ele>
        <time>2014-05-25T09:27:20Z</time>
      </trkpt>
      <trkpt lat="45.96833" lon="4.51808">
        <ele>374.57</ele>
        <time>2014-05-25T09:27:33Z</time>
      </trkpt>
      <trkpt lat="45.96755" lon="4.51732">
        <ele>367.36</ele>
        <time>2014-05-25T09:27:44Z</time>
      </trkpt>
      <trkpt lat="45.96664" lon="4.51706">
        <ele>360.63</ele>
        <time>2014-05-25T09:27:54Z</time>
      </trkpt>
      <trkpt lat="45.96577" lon="4.51656">
        <ele>347.17</ele>
        <time>2014-05-25T09:28:04Z</time>
      </trkpt>
      <trkpt lat="45.96566" lon="4.51721">
        <ele>338.52</ele>
        <time>2014-05-25T09:28:23Z</time>
      </trkpt>
      <trkpt lat="45.9661" lon="4.51835">
        <ele>337.08</ele>
        <time>2014-05-25T09:28:38Z</time>
      </trkpt>
      <trkpt lat="45.96655" lon="4.51939">
        <ele>333.71</ele>
        <time>2014-05-25T09:28:53Z</time>
      </trkpt>
      <trkpt lat="45.96724" lon="4.52037">
        <ele>329.87</ele>
        <time>2014-05-25T09:29:09Z</time>
      </trkpt>
      <trkpt lat="45.96787" lon="4.52133">
        <ele>328.91</ele>
        <time>2014-05-25T09:29:28Z</time>
      </trkpt>
      <trkpt lat="45.96747" lon="4.52162">
        <ele>348.62</ele>
        <time>2014-05-25T09:31:14Z</time>
      </trkpt>
      <trkpt lat="45.96582" lon="4.52076">
        <ele>361.11</ele>
        <time>2014-05-25T09:33:14Z</time>
      </trkpt>
      <trkpt lat="45.96444" lon="4.51973">
        <ele>370.73</ele>
        <time>2014-05-25T09:34:40Z</time>
      </trkpt>
      <trkpt lat="45.96315" lon="4.51996">
        <ele>381.3</ele>
        <time>2014-05-25T09:35:51Z</time>
      </trkpt>
      <trkpt lat="45.96269" lon="4.52086">
        <ele>382.26</ele>
        <time>2014-05-25T09:42:18Z</time>
      </trkpt>
      <trkpt lat="45.96216" lon="4.5219">
        <ele>368.8</ele>
        <time>2014-05-25T09:42:34Z</time>
      </trkpt>
      <trkpt lat="45.9622" lon="4.52317">
        <ele>352.94</ele>
        <time>2014-05-25T09:42:52Z</time>
      </trkpt>
      <trkpt lat="45.9621" lon="4.52445">
        <ele>355.34</ele>
        <time>2014-05-25T09:43:18Z</time>
      </trkpt>
      <trkpt lat="45.96122" lon="4.52481">
        <ele>344.29</ele>
        <time>2014-05-25T09:45:53Z</time>
      </trkpt>
      <trkpt lat="45.96048" lon="4.52549">
        <ele>336.12</ele>
        <time>2014-05-25T09:46:12Z</time>
      </trkpt>
      <trkpt lat="45.96008" lon="4.52668">
        <ele>326.02</ele>
        <time>2014-05-25T09:46:43Z</time>
      </trkpt>
      <trkpt lat="45.95979" lon="4.52824">
        <ele>343.81</ele>
        <time>2014-05-25T09:49:03Z</time>
      </trkpt>
      <trkpt lat="45.95923" lon="4.52926">
        <ele>358.23</ele>
        <time>2014-05-25T09:50:33Z</time>
      </trkpt>
      <trkpt lat="45.95885" lon="4.53049">
        <ele>359.67</ele>
        <time>2014-05-25T09:51:12Z</time>
      </trkpt>
      <trkpt lat="45.95834" lon="4.53156">
        <ele>359.67</ele>
        <time>2014-05-25T09:51:34Z</time>
      </trkpt>
      <trkpt lat="45.95796" lon="4.5328">
        <ele>359.19</ele>
        <time>2014-05-25T09:51:51Z</time>
      </trkpt>
      <trkpt lat="45.95745" lon="4.53383">
        <ele>355.34</ele>
        <time>2014-05-25T09:52:13Z</time>
      </trkpt>
      <trkpt lat="45.9572" lon="4.53517">
        <ele>341.41</ele>
        <time>2014-05-25T09:53:51Z</time>
      </trkpt>
      <trkpt lat="45.95672" lon="4.53632">
        <ele>330.83</ele>
        <time>2014-05-25T09:54:09Z</time>
      </trkpt>
      <trkpt lat="45.95656" lon="4.53766">
        <ele>324.1</ele>
        <time>2014-05-25T09:54:31Z</time>
      </trkpt>
      <trkpt lat="45.95742" lon="4.5392">
        <ele>328.43</ele>
        <time>2014-05-25T09:55:50Z</time>
      </trkpt>
      <trkpt lat="45.95933" lon="4.54089">
        <ele>341.41</ele>
        <time>2014-05-25T09:57:48Z</time>
      </trkpt>
      <trkpt lat="45.96042" lon="4.54218">
        <ele>347.17</ele>
        <time>2014-05-25T09:59:38Z</time>
      </trkpt>
      <trkpt lat="45.96192" lon="4.5446">
        <ele>345.73</ele>
        <time>2014-05-25T10:00:42Z</time>
      </trkpt>
      <trkpt lat="45.96256" lon="4.54603">
        <ele>356.31</ele>
        <time>2014-05-25T10:04:28Z</time>
      </trkpt>
      <trkpt lat="45.96423" lon="4.54696">
        <ele>363.04</ele>
        <time>2014-05-25T10:05:50Z</time>
      </trkpt>
      <trkpt lat="45.96543" lon="4.54775">
        <ele>365.92</ele>
        <time>2014-05-25T10:06:24Z</time>
      </trkpt>
      <trkpt lat="45.967" lon="4.54836">
        <ele>374.57</ele>
        <time>2014-05-25T10:07:43Z</time>
      </trkpt>
      <trkpt lat="45.96838" lon="4.54932">
        <ele>379.38</ele>
        <time>2014-05-25T10:08:47Z</time>
      </trkpt>
      <trkpt lat="45.96987" lon="4.55023">
        <ele>389.47</ele>
        <time>2014-05-25T10:10:10Z</time>
      </trkpt>
      <trkpt lat="45.97131" lon="4.55022">
        <ele>391.87</ele>
        <time>2014-05-25T10:16:38Z</time>
      </trkpt>
      <trkpt lat="45.97261" lon="4.55139">
        <ele>401.49</ele>
        <time>2014-05-25T10:17:46Z</time>
      </trkpt>
      <trkpt lat="45.97392" lon="4.55278">
        <ele>408.7</ele>
        <time>2014-05-25T10:19:07Z</time>
      </trkpt>
      <trkpt lat="45.97516" lon="4.55448">
        <ele>417.83</ele>
        <time>2014-05-25T10:20:25Z</time>
      </trkpt>
      <trkpt lat="45.97741" lon="4.55377">
        <ele>431.77</ele>
        <time>2014-05-25T10:22:17Z</time>
      </trkpt>
      <trkpt lat="45.97885" lon="4.55442">
        <ele>442.82</ele>
        <time>2014-05-25T10:24:20Z</time>
      </trkpt>
      <trkpt lat="45.97934" lon="4.55416">
        <ele>452.44</ele>
        <time>2014-05-25T10:39:48Z</time>
      </trkpt>
      <trkpt lat="45.98113" lon="4.55397">
        <ele>465.42</ele>
        <time>2014-05-25T10:42:57Z</time>
      </trkpt>
      <trkpt lat="45.98237" lon="4.55297">
        <ele>475.99</ele>
        <time>2014-05-25T10:44:09Z</time>
      </trkpt>
      <trkpt lat="45.98356" lon="4.55187">
        <ele>490.41</ele>
        <time>2014-05-25T10:46:51Z</time>
      </trkpt>
      <trkpt lat="45.98422" lon="4.55153">
        <ele>496.18</ele>
        <time>2014-05-25T10:58:55Z</time>
      </trkpt>
      <trkpt lat="45.98566" lon="4.55193">
        <ele>516.37</ele>
        <time>2014-05-25T11:01:06Z</time>
      </trkpt>
      <trkpt lat="45.98632" lon="4.55206">
        <ele>523.58</ele>
        <time>2014-05-25T11:03:21Z</time>
      </trkpt>
      <trkpt lat="45.98572" lon="4.55305">
        <ele>544.24</ele>
        <time>2014-05-25T11:06:04Z</time>
      </trkpt>
      <trkpt lat="45.98504" lon="4.5539">
        <ele>565.39</ele>
        <time>2014-05-25T11:09:09Z</time>
      </trkpt>
      <trkpt lat="45.98558" lon="4.55532">
        <ele>584.14</ele>
        <time>2014-05-25T11:11:51Z</time>
      </trkpt>
      <trkpt lat="45.98587" lon="4.55661">
        <ele>604.33</ele>
        <time>2014-05-25T11:15:03Z</time>
      </trkpt>
      <trkpt lat="45.98552" lon="4.55784">
        <ele>612.5</ele>
        <time>2014-05-25T11:18:55Z</time>
      </trkpt>
      <trkpt lat="45.98514" lon="4.55919">
        <ele>615.86</ele>
        <time>2014-05-25T11:19:50Z</time>
      </trkpt>
      <trkpt lat="45.98455" lon="4.55908">
        <ele>619.23</ele>
        <time>2014-05-25T11:20:50Z</time>
      </trkpt>
      <trkpt lat="45.98473" lon="4.55984">
        <ele>626.92</ele>
        <time>2014-05-25T11:22:26Z</time>
      </trkpt>
      <trkpt lat="45.98574" lon="4.55929">
        <ele>639.41</ele>
        <time>2014-05-25T11:23:43Z</time>
      </trkpt>
      <trkpt lat="45.98682" lon="4.55911">
        <ele>649.51</ele>
        <time>2014-05-25T11:25:17Z</time>
      </trkpt>
      <trkpt lat="45.98773" lon="4.56026">
        <ele>656.72</ele>
        <time>2014-05-25T11:26:38Z</time>
      </trkpt>
      <trkpt lat="45.98856" lon="4.5611">
        <ele>661.04</ele>
        <time>2014-05-25T11:29:39Z</time>
      </trkpt>
      <trkpt lat="45.98982" lon="4.56116">
        <ele>677.87</ele>
        <time>2014-05-25T11:32:36Z</time>
      </trkpt>
      <trkpt lat="45.99078" lon="4.56063">
        <ele>690.84</ele>
        <time>2014-05-25T11:34:59Z</time>
      </trkpt>
      <trkpt lat="45.99109" lon="4.55927">
        <ele>701.42</ele>
        <time>2014-05-25T11:36:15Z</time>
      </trkpt>
      <trkpt lat="45.99201" lon="4.5593">
        <ele>700.94</ele>
        <time>2014-05-25T11:40:13Z</time>
      </trkpt>
      <trkpt lat="45.99298" lon="4.55934">
        <ele>693.73</ele>
        <time>2014-05-25T11:40:31Z</time>
      </trkpt>
      <trkpt lat="45.99315" lon="4.5583">
        <ele>692.29</ele>
        <time>2014-05-25T11:40:49Z</time>
      </trkpt>
      <trkpt lat="45.99379" lon="4.55752">
        <ele>687.48</ele>
        <time>2014-05-25T11:41:06Z</time>
      </trkpt>
      <trkpt lat="45.99455" lon="4.55726">
        <ele>682.19</ele>
        <time>2014-05-25T11:41:24Z</time>
      </trkpt>
      <trkpt lat="45.99448" lon="4.55583">
        <ele>678.83</ele>
        <time>2014-05-25T11:41:39Z</time>
      </trkpt>
      <trkpt lat="45.99481" lon="4.55446">
        <ele>674.5</ele>
        <time>2014-05-25T11:41:54Z</time>
      </trkpt>
      <trkpt lat="45.99537" lon="4.55337">
        <ele>671.14</ele>
        <time>2014-05-25T11:42:10Z</time>
      </trkpt>
      <trkpt lat="45.99633" lon="4.55308">
        <ele>673.06</ele>
        <time>2014-05-25T11:42:35Z</time>
      </trkpt>
      <trkpt lat="45.99711" lon="4.55208">
        <ele>673.54</ele>
        <time>2014-05-25T11:43:02Z</time>
      </trkpt>
      <trkpt lat="45.99769" lon="4.5509">
        <ele>673.54</ele>
        <time>2014-05-25T11:43:26Z</time>
      </trkpt>
      <trkpt lat="45.99788" lon="4.54835">
        <ele>701.9</ele>
        <time>2014-05-25T11:47:55Z</time>
      </trkpt>
      <trkpt lat="45.9983" lon="4.54672">
        <ele>714.88</ele>
        <time>2014-05-25T11:49:36Z</time>
      </trkpt>
      <trkpt lat="45.9988" lon="4.54555">
        <ele>711.99</ele>
        <time>2014-05-25T11:56:47Z</time>
      </trkpt>
      <trkpt lat="45.99977" lon="4.54497">
        <ele>694.21</ele>
        <time>2014-05-25T11:57:19Z</time>
      </trkpt>
      <trkpt lat="46.00101" lon="4.54403">
        <ele>681.71</ele>
        <time>2014-05-25T11:58:54Z</time>
      </trkpt>
      <trkpt lat="46.00167" lon="4.54198">
        <ele>668.25</ele>
        <time>2014-05-25T12:00:45Z</time>
      </trkpt>
      <trkpt lat="46.00247" lon="4.54072">
        <ele>656.24</ele>
        <time>2014-05-25T12:02:48Z</time>
      </trkpt>
      <trkpt lat="46.00339" lon="4.54038">
        <ele>647.1</ele>
        <time>2014-05-25T12:03:50Z</time>
      </trkpt>
      <trkpt lat="46.00362" lon="4.53903">
        <ele>642.78</ele>
        <time>2014-05-25T12:05:33Z</time>
      </trkpt>
      <trkpt lat="46.00329" lon="4.53777">
        <ele>649.03</ele>
        <time>2014-05-25T12:06:19Z</time>
      </trkpt>
      <trkpt lat="46.00378" lon="4.53658">
        <ele>660.08</ele>
        <time>2014-05-25T12:07:28Z</time>
      </trkpt>
      <trkpt lat="46.00424" lon="4.53535">
        <ele>674.02</ele>
        <time>2014-05-25T12:08:55Z</time>
      </trkpt>
      <trkpt lat="46.00355" lon="4.53449">
        <ele>674.98</ele>
        <time>2014-05-25T12:09:32Z</time>
      </trkpt>
      <trkpt lat="46.00263" lon="4.53406">
        <ele>673.54</ele>
        <time>2014-05-25T12:09:48Z</time>
      </trkpt>
      <trkpt lat="46.00166" lon="4.53414">
        <ele>672.58</ele>
        <time>2014-05-25T12:10:01Z</time>
      </trkpt>
      <trkpt lat="46.00092" lon="4.53339">
        <ele>672.1</ele>
        <time>2014-05-25T12:10:13Z</time>
      </trkpt>
      <trkpt lat="46.00035" lon="4.53227">
        <ele>669.22</ele>
        <time>2014-05-25T12:10:26Z</time>
      </trkpt>
      <trkpt lat="45.99987" lon="4.53107">
        <ele>668.25</ele>
        <time>2014-05-25T12:10:39Z</time>
      </trkpt>
      <trkpt lat="45.99937" lon="4.53003">
        <ele>663.93</ele>
        <time>2014-05-25T12:10:50Z</time>
      </trkpt>
      <trkpt lat="45.99842" lon="4.53011">
        <ele>659.6</ele>
        <time>2014-05-25T12:11:02Z</time>
      </trkpt>
      <trkpt lat="45.99749" lon="4.53057">
        <ele>656.72</ele>
        <time>2014-05-25T12:11:12Z</time>
      </trkpt>
      <trkpt lat="45.99658" lon="4.53054">
        <ele>653.35</ele>
        <time>2014-05-25T12:11:21Z</time>
      </trkpt>
      <trkpt lat="45.99582" lon="4.52975">
        <ele>649.51</ele>
        <time>2014-05-25T12:11:31Z</time>
      </trkpt>
      <trkpt lat="45.99636" lon="4.52886">
        <ele>643.74</ele>
        <time>2014-05-25T12:11:44Z</time>
      </trkpt>
      <trkpt lat="45.99694" lon="4.52791">
        <ele>633.17</ele>
        <time>2014-05-25T12:11:54Z</time>
      </trkpt>
      <trkpt lat="45.99706" lon="4.52659">
        <ele>622.59</ele>
        <time>2014-05-25T12:12:21Z</time>
      </trkpt>
      <trkpt lat="45.99739" lon="4.52526">
        <ele>614.42</ele>
        <time>2014-05-25T12:12:32Z</time>
      </trkpt>
      <trkpt lat="45.99704" lon="4.52428">
        <ele>606.25</ele>
        <time>2014-05-25T12:12:43Z</time>
      </trkpt>
      <trkpt lat="45.99609" lon="4.52406">
        <ele>595.19</ele>
        <time>2014-05-25T12:12:53Z</time>
      </trkpt>
      <trkpt lat="45.99589" lon="4.52272">
        <ele>588.95</ele>
        <time>2014-05-25T12:13:02Z</time>
      </trkpt>
      <trkpt lat="45.99625" lon="4.52149">
        <ele>579.81</ele>
        <time>2014-05-25T12:13:10Z</time>
      </trkpt>
      <trkpt lat="45.99586" lon="4.52033">
        <ele>569.24</ele>
        <time>2014-05-25T12:13:19Z</time>
      </trkpt>
      <trkpt lat="45.99603" lon="4.51904">
        <ele>559.62</ele>
        <time>2014-05-25T12:13:30Z</time>
      </trkpt>
      <trkpt lat="45.99503" lon="4.51892">
        <ele>550.97</ele>
        <time>2014-05-25T12:13:41Z</time>
      </trkpt>
      <trkpt lat="45.99416" lon="4.5182">
        <ele>542.8</ele>
        <time>2014-05-25T12:13:50Z</time>
      </trkpt>
      <trkpt lat="45.99324" lon="4.51764">
        <ele>533.19</ele>
        <time>2014-05-25T12:13:59Z</time>
      </trkpt>
      <trkpt lat="45.99239" lon="4.51699">
        <ele>523.58</ele>
        <time>2014-05-25T12:14:08Z</time>
      </trkpt>
      <trkpt lat="45.99182" lon="4.51598">
        <ele>513.48</ele>
        <time>2014-05-25T12:14:23Z</time>
      </trkpt>
      <trkpt lat="45.99101" lon="4.51532">
        <ele>503.87</ele>
        <time>2014-05-25T12:14:36Z</time>
      </trkpt>
      <trkpt lat="45.99061" lon="4.51422">
        <ele>495.22</ele>
        <time>2014-05-25T12:14:49Z</time>
      </trkpt>
      <trkpt lat="45.98997" lon="4.51314">
        <ele>488.97</ele>
        <time>2014-05-25T12:15:00Z</time>
      </trkpt>
      <trkpt lat="45.9895" lon="4.51215">
        <ele>482.24</ele>
        <time>2014-05-25T12:15:13Z</time>
      </trkpt>
      <trkpt lat="45.98955" lon="4.51175">
        <ele>476.47</ele>
        <time>2014-05-25T12:16:39Z</time>
      </trkpt>
      <trkpt lat="45.98891" lon="4.51268">
        <ele>467.82</ele>
        <time>2014-05-25T12:17:26Z</time>
      </trkpt>
      <trkpt lat="45.98807" lon="4.51212">
        <ele>462.05</ele>
        <time>2014-05-25T12:17:43Z</time>
      </trkpt>
      <trkpt lat="45.98753" lon="4.51202">
        <ele>455.8</ele>
        <time>2014-05-25T12:18:48Z</time>
      </trkpt>
      <trkpt lat="45.9872" lon="4.51134">
        <ele>443.31</ele>
        <time>2014-05-25T12:19:07Z</time>
      </trkpt>
      <trkpt lat="45.98788" lon="4.5105">
        <ele>430.33</ele>
        <time>2014-05-25T12:19:20Z</time>
      </trkpt>
      <trkpt lat="45.98746" lon="4.51008">
        <ele>421.19</ele>
        <time>2014-05-25T12:19:38Z</time>
      </trkpt>
      <trkpt lat="45.9865" lon="4.51056">
        <ele>413.02</ele>
        <time>2014-05-25T12:19:48Z</time>
      </trkpt>
      <trkpt lat="45.98559" lon="4.51099">
        <ele>402.93</ele>
        <time>2014-05-25T12:19:57Z</time>
      </trkpt>
      <trkpt lat="45.98468" lon="4.51135">
        <ele>390.43</ele>
        <time>2014-05-25T12:20:10Z</time>
      </trkpt>
      <trkpt lat="45.98435" lon="4.51163">
        <ele>376.01</ele>
        <time>2014-05-25T12:20:32Z</time>
      </trkpt>
      <trkpt lat="45.98363" lon="4.51198">
        <ele>375.05</ele>
        <time>2014-05-25T12:20:48Z</time>
      </trkpt>
      <trkpt lat="45.98275" lon="4.51145">
        <ele>372.17</ele>
        <time>2014-05-25T12:21:04Z</time>
      </trkpt>
      <trkpt lat="45.98189" lon="4.5109">
        <ele>370.73</ele>
        <time>2014-05-25T12:21:18Z</time>
      </trkpt>
      <trkpt lat="45.98101" lon="4.51081">
        <ele>366.88</ele>
        <time>2014-05-25T12:21:32Z</time>
      </trkpt>
      <trkpt lat="45.98044" lon="4.5098">
        <ele>369.28</ele>
        <time>2014-05-25T12:21:50Z</time>
      </trkpt>
    </trkseg>
  </trk>
</gpx>